createdAt,value
2018-04-20T00:02:21.585Z,55.74
2018-04-20T00:04:49.059Z,55.96
2018-04-20T00:07:16.536Z,56.17
2018-04-20T00:09:43.994Z,56.00
2018-04-20T00:12:11.464Z,56.26
2018-04-20T00:14:38.951Z,56.71
2018-04-20T00:17:06.422Z,57.21
2018-04-20T00:19:33.949Z,57.65
2018-04-20T00:22:01.423Z,57.86
2018-04-20T00:24:28.918Z,58.09
2018-04-20T00:26:56.382Z,58.33
2018-04-20T00:29:23.839Z,58.71
2018-04-20T00:31:51.370Z,58.91
2018-04-20T00:34:18.879Z,58.97
2018-04-20T00:36:46.343Z,59.46
2018-04-20T00:39:13.838Z,60.07
2018-04-20T00:41:41.293Z,59.79
2018-04-20T00:44:08.755Z,59.42
2018-04-20T00:46:36.253Z,59.79
2018-04-20T00:49:03.857Z,59.74
2018-04-20T00:51:31.329Z,60.03
2018-04-20T00:54:10.502Z,59.98
2018-04-20T00:56:37.982Z,59.85
2018-04-20T00:59:05.442Z,59.98
2018-04-20T01:01:32.906Z,60.29
2018-04-20T01:04:00.404Z,60.61
2018-04-20T01:06:27.870Z,60.83
2018-04-20T01:08:55.405Z,60.81
2018-04-20T01:11:22.880Z,60.81
2018-04-20T01:13:50.339Z,60.94
2018-04-20T01:16:17.862Z,60.75
2018-04-20T01:18:45.357Z,60.95
2018-04-20T01:21:12.993Z,61.59
2018-04-20T01:23:40.453Z,61.18
2018-04-20T01:26:08.003Z,60.79
2018-04-20T01:28:35.471Z,61.00
2018-04-20T01:31:02.967Z,60.93
2018-04-20T01:33:30.476Z,60.67
2018-04-20T01:35:57.928Z,61.18
2018-04-20T01:38:25.411Z,61.63
2018-04-20T01:40:52.897Z,62.05
2018-04-20T01:43:20.351Z,61.75
2018-04-20T01:45:47.826Z,61.61
2018-04-20T01:48:15.314Z,61.58
2018-04-20T01:50:42.803Z,61.65
2018-04-20T01:53:10.287Z,62.01
2018-04-20T01:55:37.791Z,61.89
2018-04-20T01:58:05.242Z,61.24
2018-04-20T02:00:32.703Z,61.64
2018-04-20T02:03:00.166Z,61.87
2018-04-20T02:05:27.639Z,62.24
2018-04-20T02:07:55.097Z,62.10
2018-04-20T02:10:22.609Z,61.80
2018-04-20T02:12:50.095Z,61.36
2018-04-20T02:15:18.420Z,61.61
2018-04-20T02:17:45.884Z,62.20
2018-04-20T02:20:13.358Z,62.34
2018-04-20T02:22:40.809Z,62.93
2018-04-20T02:25:08.265Z,63.68
2018-04-20T02:27:36.422Z,64.33
2018-04-20T02:30:03.907Z,64.87
2018-04-20T02:32:31.388Z,65.36
2018-04-20T02:34:58.893Z,65.94
2018-04-20T02:37:26.368Z,66.23
2018-04-20T02:39:53.874Z,66.67
2018-04-20T02:42:22.100Z,66.93
2018-04-20T02:44:49.566Z,67.25
2018-04-20T02:47:17.078Z,67.34
2018-04-20T02:49:44.537Z,67.49
2018-04-20T02:52:11.999Z,67.28
2018-04-20T02:54:39.497Z,67.04
2018-04-20T02:57:06.950Z,66.39
2018-04-20T02:59:34.452Z,65.35
2018-04-20T03:02:01.948Z,64.81
2018-04-20T03:04:29.402Z,65.22
2018-04-20T03:06:56.867Z,65.23
2018-04-20T03:09:24.359Z,65.54
2018-04-20T03:11:51.838Z,65.79
2018-04-20T03:14:19.306Z,66.36
2018-04-20T03:16:46.780Z,66.98
2018-04-20T03:19:14.240Z,67.57
2018-04-20T03:21:41.708Z,67.99
2018-04-20T03:24:09.180Z,68.36
2018-04-20T03:26:36.644Z,68.62
2018-04-20T03:29:04.218Z,68.62
2018-04-20T03:31:31.670Z,69.01
2018-04-20T03:33:59.133Z,69.19
2018-04-20T03:36:26.665Z,69.35
2018-04-20T03:38:54.129Z,69.52
2018-04-20T03:41:21.606Z,69.54
2018-04-20T03:43:49.067Z,69.75
2018-04-20T03:46:16.581Z,69.81
2018-04-20T03:48:44.043Z,70.00
2018-04-20T03:51:11.514Z,70.12
2018-04-20T03:53:39.029Z,69.99
2018-04-20T03:56:06.492Z,70.07
2018-04-20T03:58:33.960Z,70.00
2018-04-20T04:01:01.511Z,70.24
2018-04-20T04:03:29.103Z,70.18
2018-04-20T04:05:56.574Z,70.38
2018-04-20T04:08:24.059Z,70.50
2018-04-20T04:10:52.051Z,70.66
2018-04-20T04:13:19.755Z,70.85
2018-04-20T04:15:47.240Z,70.81
2018-04-20T04:18:26.505Z,70.80
2018-04-20T04:21:05.582Z,70.58
2018-04-20T04:23:44.749Z,70.36
2018-04-20T04:26:23.806Z,70.04
2018-04-20T04:28:51.267Z,69.72
2018-04-20T04:31:19.605Z,69.68
2018-04-20T04:33:47.136Z,69.62
2018-04-20T04:36:14.604Z,69.61
2018-04-20T04:38:42.285Z,69.03
2018-04-20T04:41:09.754Z,68.81
2018-04-20T04:43:37.527Z,68.45
2018-04-20T04:46:05.017Z,68.20
2018-04-20T04:48:32.483Z,68.18
2018-04-20T04:50:59.970Z,68.08
2018-04-20T04:53:27.640Z,67.94
2018-04-20T04:55:55.161Z,67.97
2018-04-20T04:58:22.650Z,67.48
2018-04-20T05:00:50.154Z,66.52
2018-04-20T05:03:17.635Z,66.17
2018-04-20T05:05:45.224Z,65.50
2018-04-20T05:08:12.707Z,65.09
2018-04-20T05:10:40.201Z,64.48
2018-04-20T05:13:07.658Z,64.12
2018-04-20T05:15:35.179Z,63.69
2018-04-20T05:18:02.667Z,63.46
2018-04-20T05:20:30.132Z,63.40
2018-04-20T05:22:57.616Z,63.05
2018-04-20T05:25:25.587Z,62.94
2018-04-20T05:27:53.014Z,62.62
2018-04-20T05:30:20.482Z,62.48
2018-04-20T05:32:48.008Z,62.50
2018-04-20T05:35:15.440Z,62.07
2018-04-20T05:37:42.956Z,61.81
2018-04-20T05:40:10.450Z,61.56
2018-04-20T05:42:37.975Z,61.21
2018-04-20T05:45:05.530Z,61.32
2018-04-20T05:47:33.080Z,61.15
2018-04-20T05:50:00.587Z,61.15
2018-04-20T05:52:28.086Z,60.99
2018-04-20T05:54:55.565Z,60.34
2018-04-20T05:57:23.116Z,60.17
2018-04-20T05:59:50.610Z,59.84
2018-04-20T06:02:18.109Z,59.38
2018-04-20T06:04:45.601Z,59.29
2018-04-20T06:07:13.086Z,59.15
2018-04-20T06:09:40.565Z,59.20
2018-04-20T06:12:08.077Z,58.85
2018-04-20T06:14:35.551Z,58.17
2018-04-20T06:17:04.092Z,58.13
2018-04-20T06:19:31.592Z,58.09
2018-04-20T06:21:59.065Z,57.71
2018-04-20T06:24:26.550Z,57.29
2018-04-20T06:26:54.098Z,56.67
2018-04-20T06:29:21.644Z,56.80
2018-04-20T06:31:49.114Z,56.69
2018-04-20T06:34:16.619Z,56.51
2018-04-20T06:36:44.110Z,55.86
2018-04-20T06:39:11.604Z,55.92
2018-04-20T06:41:39.149Z,56.06
2018-04-20T06:44:06.600Z,55.72
2018-04-20T06:46:34.058Z,55.78
2018-04-20T06:49:01.524Z,55.50
2018-04-20T06:51:29.031Z,55.14
2018-04-20T06:53:56.498Z,55.15
2018-04-20T06:56:23.981Z,54.79
2018-04-20T06:58:51.474Z,54.50
2018-04-20T07:01:18.961Z,54.42
2018-04-20T07:03:46.430Z,54.01
2018-04-20T07:06:13.889Z,53.42
2018-04-20T07:08:41.377Z,53.60
2018-04-20T07:11:08.874Z,54.18
2018-04-20T07:13:36.338Z,54.04
2018-04-20T07:16:03.874Z,53.29
2018-04-20T07:18:31.347Z,52.93
2018-04-20T07:20:58.809Z,52.45
2018-04-20T07:23:26.371Z,52.76
2018-04-20T07:25:53.794Z,52.18
2018-04-20T07:28:21.266Z,52.25
2018-04-20T07:30:48.755Z,52.42
2018-04-20T07:33:16.274Z,53.03
2018-04-20T07:35:43.822Z,52.55
2018-04-20T07:38:11.304Z,52.98
2018-04-20T07:40:38.780Z,52.32
2018-04-20T07:43:06.283Z,52.44
2018-04-20T07:45:33.763Z,52.59
2018-04-20T07:48:01.233Z,52.88
2018-04-20T07:50:28.706Z,52.07
2018-04-20T07:52:56.185Z,51.87
2018-04-20T07:55:23.659Z,52.29
2018-04-20T07:57:51.191Z,51.95
2018-04-20T08:00:18.665Z,51.06
2018-04-20T08:02:46.204Z,50.99
2018-04-20T08:05:13.680Z,50.39
2018-04-20T08:07:41.170Z,50.25
2018-04-20T08:10:08.675Z,50.00
2018-04-20T08:12:36.180Z,49.80
2018-04-20T08:15:03.650Z,49.69
2018-04-20T08:17:31.106Z,49.13
2018-04-20T08:19:58.583Z,49.02
2018-04-20T08:22:26.070Z,49.21
2018-04-20T08:24:53.554Z,49.43
2018-04-20T08:27:21.649Z,49.01
2018-04-20T08:29:49.158Z,49.22
2018-04-20T08:32:16.638Z,48.77
2018-04-20T08:34:44.100Z,47.97
2018-04-20T08:37:11.619Z,48.18
2018-04-20T08:39:39.096Z,47.57
2018-04-20T08:42:06.616Z,47.13
2018-04-20T08:44:34.058Z,46.49
2018-04-20T08:47:01.605Z,46.58
2018-04-20T08:49:29.070Z,46.45
2018-04-20T08:51:56.549Z,47.69
2018-04-20T08:54:24.010Z,48.06
2018-04-20T08:56:51.483Z,47.61
2018-04-20T08:59:18.964Z,47.55
2018-04-20T09:01:46.451Z,47.99
2018-04-20T09:04:13.927Z,48.03
2018-04-20T09:06:41.381Z,47.35
2018-04-20T09:09:08.904Z,46.93
2018-04-20T09:11:36.351Z,47.05
2018-04-20T09:14:03.830Z,46.71
2018-04-20T09:16:31.305Z,46.23
2018-04-20T09:18:58.829Z,46.58
2018-04-20T09:21:26.283Z,46.46
2018-04-20T09:23:53.750Z,46.71
2018-04-20T09:26:21.234Z,47.01
2018-04-20T09:28:49.455Z,46.86
2018-04-20T09:31:17.001Z,45.96
2018-04-20T09:33:44.465Z,46.06
2018-04-20T09:36:11.969Z,46.18
2018-04-20T09:38:39.460Z,44.91
2018-04-20T09:41:06.925Z,45.47
2018-04-20T09:43:34.402Z,45.04
2018-04-20T09:46:01.883Z,45.29
2018-04-20T09:48:29.341Z,45.69
2018-04-20T09:50:56.819Z,44.24
2018-04-20T09:53:24.299Z,43.70
2018-04-20T09:55:51.787Z,42.10
2018-04-20T09:58:19.342Z,41.81
2018-04-20T10:00:46.807Z,42.42
2018-04-20T10:03:14.311Z,40.67
2018-04-20T10:05:41.785Z,40.76
2018-04-20T10:08:09.251Z,40.74
2018-04-20T10:10:36.760Z,40.52
2018-04-20T10:13:04.283Z,40.54
2018-04-20T10:15:31.743Z,40.70
2018-04-20T10:17:59.222Z,39.88
2018-04-20T10:20:26.683Z,39.66
2018-04-20T10:22:54.138Z,39.85
2018-04-20T10:25:21.599Z,39.40
2018-04-20T10:27:49.050Z,38.94
2018-04-20T10:30:16.554Z,38.77
2018-04-20T10:32:44.072Z,37.90
2018-04-20T10:35:11.526Z,36.21
2018-04-20T10:37:38.997Z,36.56
2018-04-20T10:40:07.846Z,36.16
2018-04-20T10:42:35.301Z,35.29
2018-04-20T10:45:02.772Z,34.25
2018-04-20T10:47:30.218Z,33.32
2018-04-20T10:49:57.685Z,32.67
2018-04-20T10:52:25.150Z,32.76
2018-04-20T10:54:52.602Z,33.25
2018-04-20T10:57:20.050Z,33.15
2018-04-20T10:59:47.530Z,33.04
2018-04-20T11:02:16.015Z,33.16
2018-04-20T11:04:43.493Z,33.32
2018-04-20T11:07:11.021Z,32.88
2018-04-20T11:09:38.484Z,30.44
2018-04-20T11:12:05.956Z,29.21
2018-04-20T11:14:33.422Z,29.22
2018-04-20T11:17:00.886Z,29.01
2018-04-20T11:19:28.367Z,28.99
2018-04-20T11:21:55.854Z,27.78
2018-04-20T11:24:23.305Z,27.38
2018-04-20T11:26:50.851Z,27.25
2018-04-20T11:29:18.330Z,27.50
2018-04-20T11:31:45.797Z,27.57
2018-04-20T11:34:13.260Z,27.46
2018-04-20T11:36:40.726Z,27.59
2018-04-20T11:39:09.444Z,27.93
2018-04-20T11:41:36.912Z,28.27
2018-04-20T11:44:04.454Z,28.81
2018-04-20T11:46:31.967Z,27.94
2018-04-20T11:48:59.422Z,29.71
2018-04-20T11:51:26.907Z,31.05
2018-04-20T11:53:54.453Z,30.39
2018-04-20T11:56:21.880Z,30.66
2018-04-20T11:58:49.364Z,29.59
2018-04-20T12:01:16.887Z,28.04
2018-04-20T12:03:44.399Z,28.95
2018-04-20T12:06:11.902Z,28.21
2018-04-20T12:08:39.366Z,28.64
2018-04-20T12:11:06.829Z,28.98
2018-04-20T12:13:34.312Z,27.89
2018-04-20T12:16:01.824Z,27.56
2018-04-20T12:18:29.325Z,26.98
2018-04-20T12:20:56.798Z,26.07
2018-04-20T12:23:24.285Z,25.66
2018-04-20T12:25:51.738Z,26.46
2018-04-20T12:28:19.234Z,26.88
2018-04-20T12:30:46.683Z,24.89
2018-04-20T12:33:14.145Z,25.87
2018-04-20T12:35:41.638Z,26.05
2018-04-20T12:38:09.163Z,25.58
2018-04-20T12:40:36.622Z,25.19
2018-04-20T12:43:04.115Z,25.23
2018-04-20T12:45:31.633Z,24.74
2018-04-20T12:47:59.106Z,24.36
2018-04-20T12:50:26.586Z,24.01
2018-04-20T12:52:54.064Z,24.14
2018-04-20T12:55:21.599Z,23.38
2018-04-20T12:57:49.072Z,22.47
2018-04-20T13:00:16.541Z,21.00
2018-04-20T13:02:44.016Z,20.83
2018-04-20T13:05:11.547Z,21.03
2018-04-20T13:07:39.224Z,20.58
2018-04-20T13:10:06.707Z,20.62
2018-04-20T13:12:34.157Z,20.95
2018-04-20T13:15:01.643Z,20.88
2018-04-20T13:17:29.262Z,20.43
2018-04-20T13:19:56.719Z,20.74
2018-04-20T13:22:24.171Z,20.40
2018-04-20T13:24:51.713Z,20.03
2018-04-20T13:27:19.191Z,20.09
2018-04-20T13:29:46.691Z,19.55
2018-04-20T13:32:14.179Z,19.09
2018-04-20T13:34:41.698Z,19.10
2018-04-20T13:37:09.197Z,18.72
2018-04-20T13:39:36.682Z,18.41
2018-04-20T13:42:04.131Z,18.74
2018-04-20T13:44:31.637Z,18.61
2018-04-20T13:46:59.078Z,18.98
2018-04-20T13:49:26.618Z,19.04
2018-04-20T13:51:54.531Z,18.51
2018-04-20T13:54:21.991Z,18.41
2018-04-20T13:56:49.495Z,18.54
2018-04-20T13:59:16.957Z,17.82
2018-04-20T14:01:44.418Z,17.43
2018-04-20T14:04:11.916Z,17.22
2018-04-20T14:06:39.393Z,17.56
2018-04-20T14:09:06.847Z,17.06
2018-04-20T14:11:34.333Z,16.44
2018-04-20T14:14:01.794Z,15.80
2018-04-20T14:16:29.267Z,14.76
2018-04-20T14:18:56.739Z,13.90
2018-04-20T14:21:24.209Z,13.80
2018-04-20T14:23:51.682Z,13.82
2018-04-20T14:26:19.204Z,13.59
2018-04-20T14:28:46.607Z,12.64
2018-04-20T14:31:14.099Z,12.73
2018-04-20T14:33:41.581Z,12.10
2018-04-20T14:36:09.828Z,12.64
2018-04-20T14:38:37.311Z,13.10
2018-04-20T14:41:04.786Z,12.75
2018-04-20T14:43:32.271Z,12.31
2018-04-20T14:45:59.730Z,12.37
2018-04-20T14:48:27.199Z,12.41
2018-04-20T14:50:54.738Z,12.31
2018-04-20T14:53:22.216Z,12.45
2018-04-20T14:55:49.695Z,12.02
2018-04-20T14:58:17.314Z,11.74
2018-04-20T15:00:44.776Z,11.92
2018-04-20T15:03:12.283Z,11.44
2018-04-20T15:05:39.767Z,11.12
2018-04-20T15:08:07.217Z,11.43
2018-04-20T15:10:35.459Z,11.83
2018-04-20T15:13:02.927Z,11.96
2018-04-20T15:15:30.382Z,12.02
2018-04-20T15:17:57.877Z,11.79
2018-04-20T15:20:25.360Z,11.87
2018-04-20T15:22:52.825Z,11.79
2018-04-20T15:25:20.290Z,12.16
2018-04-20T15:27:47.778Z,12.03
2018-04-20T15:30:15.261Z,12.03
2018-04-20T15:32:42.734Z,11.94
2018-04-20T15:35:10.207Z,11.96
2018-04-20T15:37:37.665Z,12.11
2018-04-20T15:40:05.147Z,12.30
2018-04-20T15:42:32.604Z,12.16
2018-04-20T15:45:00.104Z,12.98
2018-04-20T15:47:27.558Z,13.16
2018-04-20T15:49:55.032Z,13.78
2018-04-20T15:52:22.517Z,13.74
2018-04-20T15:54:49.975Z,13.38
2018-04-20T15:57:17.457Z,12.98
2018-04-20T15:59:44.927Z,12.46
2018-04-20T16:02:12.425Z,12.55
2018-04-20T16:04:39.935Z,13.36
2018-04-20T16:07:07.439Z,13.07
2018-04-20T16:09:34.950Z,13.32
2018-04-20T16:12:02.419Z,13.06
2018-04-20T16:14:29.877Z,13.42
2018-04-20T16:16:57.360Z,13.54
2018-04-20T16:19:24.869Z,13.51
2018-04-20T16:21:52.348Z,13.90
2018-04-20T16:24:19.815Z,13.59
2018-04-20T16:26:47.269Z,13.68
2018-04-20T16:29:14.729Z,14.27
2018-04-20T16:31:42.206Z,14.13
2018-04-20T16:34:09.679Z,13.81
2018-04-20T16:36:37.139Z,14.57
2018-04-20T16:39:04.676Z,14.56
2018-04-20T16:41:32.107Z,14.73
2018-04-20T16:43:59.610Z,15.03
2018-04-20T16:46:27.074Z,14.77
2018-04-20T16:48:54.533Z,14.82
2018-04-20T16:51:22.088Z,14.85
2018-04-20T16:53:49.545Z,15.12
2018-04-20T16:56:17.010Z,15.50
2018-04-20T16:58:44.483Z,15.94
2018-04-20T17:01:11.963Z,16.47
2018-04-20T17:03:39.439Z,16.77
2018-04-20T17:06:06.937Z,17.16
2018-04-20T17:08:34.407Z,17.07
2018-04-20T17:11:01.878Z,16.79
2018-04-20T17:13:29.393Z,16.64
2018-04-20T17:16:02.382Z,17.01
2018-04-20T17:18:29.859Z,17.75
2018-04-20T17:20:57.416Z,18.59
2018-04-20T17:23:24.880Z,19.22
2018-04-20T17:25:52.370Z,19.86
2018-04-20T17:28:19.929Z,19.91
2018-04-20T17:30:47.402Z,20.33
2018-04-20T17:33:14.863Z,21.43
2018-04-20T17:35:42.372Z,22.70
2018-04-20T17:38:09.825Z,23.97
2018-04-20T17:40:37.455Z,25.18
2018-04-20T17:43:04.931Z,26.40
2018-04-20T17:45:32.428Z,27.44
2018-04-20T17:48:00.052Z,28.03
2018-04-20T17:50:27.514Z,28.63
2018-04-20T17:52:55.032Z,29.38
2018-04-20T17:55:22.548Z,29.82
2018-04-20T17:57:50.135Z,30.05
2018-04-20T18:00:17.585Z,30.58
2018-04-20T18:02:45.078Z,30.96
2018-04-20T18:05:12.565Z,31.40
2018-04-20T18:07:40.025Z,30.52
2018-04-20T18:10:07.530Z,31.05
2018-04-20T18:12:35.114Z,31.19
2018-04-20T18:15:02.580Z,31.51
2018-04-20T18:17:30.267Z,32.18
2018-04-20T18:19:57.757Z,33.01
2018-04-20T18:22:25.227Z,32.96
2018-04-20T18:24:52.706Z,33.36
2018-04-20T18:27:20.607Z,33.32
2018-04-20T18:29:48.054Z,33.53
2018-04-20T18:32:15.533Z,33.72
2018-04-20T18:34:43.018Z,34.49
2018-04-20T18:37:10.497Z,34.14
2018-04-20T18:39:37.964Z,34.36
2018-04-20T18:42:05.442Z,35.35
2018-04-20T18:44:32.940Z,35.43
2018-04-20T18:47:00.430Z,35.65
2018-04-20T18:49:27.894Z,36.86
2018-04-20T18:51:55.427Z,37.24
2018-04-20T18:54:22.887Z,37.32
2018-04-20T18:56:50.367Z,37.91
2018-04-20T18:59:17.860Z,38.08
2018-04-20T19:01:45.785Z,38.67
2018-04-20T19:04:13.365Z,38.89
2018-04-20T19:06:40.896Z,39.52
2018-04-20T19:09:08.360Z,40.29
2018-04-20T19:11:35.831Z,41.32
2018-04-20T19:14:03.328Z,41.54
2018-04-20T19:16:30.783Z,40.93
2018-04-20T19:18:58.250Z,41.06
2018-04-20T19:21:25.717Z,40.80
2018-04-20T19:23:53.204Z,40.73
2018-04-20T19:26:20.684Z,40.80
2018-04-20T19:28:48.135Z,41.01
2018-04-20T19:31:15.599Z,41.46
2018-04-20T19:33:43.058Z,41.73
2018-04-20T19:36:10.558Z,41.78
2018-04-20T19:38:38.071Z,42.21
2018-04-20T19:41:06.053Z,42.54
2018-04-20T19:43:33.523Z,42.91
2018-04-20T19:46:01.092Z,43.74
2018-04-20T19:48:28.580Z,45.30
2018-04-20T19:50:56.083Z,44.97
2018-04-20T19:53:23.619Z,44.62
2018-04-20T19:55:51.142Z,45.76
2018-04-20T19:58:18.623Z,46.46
2018-04-20T20:00:46.101Z,45.83
2018-04-20T20:03:13.653Z,45.23
2018-04-20T20:05:41.212Z,45.42
2018-04-20T20:08:08.715Z,46.29
2018-04-20T20:10:36.231Z,47.31
2018-04-20T20:13:04.220Z,47.37
2018-04-20T20:15:31.686Z,48.09
2018-04-20T20:17:59.169Z,48.40
2018-04-20T20:20:26.925Z,48.74
2018-04-20T20:22:54.386Z,49.16
2018-04-20T20:25:21.877Z,49.46
2018-04-20T20:27:49.376Z,49.93
2018-04-20T20:30:16.870Z,50.20
2018-04-20T20:32:44.340Z,50.27
2018-04-20T20:35:11.842Z,50.45
2018-04-20T20:37:39.314Z,50.19
2018-04-20T20:40:07.927Z,50.18
2018-04-20T20:42:35.446Z,50.12
2018-04-20T20:45:02.938Z,49.96
2018-04-20T20:47:30.437Z,50.26
2018-04-20T20:49:57.962Z,50.73
2018-04-20T20:52:25.386Z,50.95
2018-04-20T20:54:52.875Z,50.92
2018-04-20T20:57:20.344Z,51.25
2018-04-20T20:59:47.844Z,51.32
2018-04-20T21:02:15.307Z,51.46
2018-04-20T21:04:42.856Z,51.56
2018-04-20T21:07:10.337Z,51.74
2018-04-20T21:09:37.933Z,51.75
2018-04-20T21:12:05.494Z,51.63
2018-04-20T21:14:32.959Z,51.57
2018-04-20T21:17:00.459Z,51.98
2018-04-20T21:19:27.937Z,52.37
2018-04-20T21:21:55.390Z,52.55
2018-04-20T21:24:22.862Z,52.51
2018-04-20T21:26:50.326Z,52.58
2018-04-20T21:29:17.807Z,52.81
2018-04-20T21:31:45.305Z,53.06
2018-04-20T21:34:12.766Z,53.20
2018-04-20T21:36:40.230Z,53.45
2018-04-20T21:39:07.734Z,53.86
2018-04-20T21:41:35.195Z,53.56
2018-04-20T21:44:02.686Z,53.86
2018-04-20T21:46:30.178Z,54.18
2018-04-20T21:48:57.645Z,54.32
2018-04-20T21:51:25.098Z,53.92
2018-04-20T21:53:52.613Z,53.90
2018-04-20T21:56:20.076Z,53.84
2018-04-20T21:58:47.572Z,53.95
2018-04-20T22:01:15.054Z,53.96
2018-04-20T22:03:42.502Z,54.08
2018-04-20T22:06:10.031Z,54.28
2018-04-20T22:08:37.525Z,54.45
2018-04-20T22:11:05.034Z,54.67
2018-04-20T22:13:32.490Z,54.77
2018-04-20T22:15:59.955Z,55.02
2018-04-20T22:18:27.435Z,55.16
2018-04-20T22:20:54.886Z,55.28
2018-04-20T22:23:23.122Z,55.43
2018-04-20T22:25:50.607Z,55.76
2018-04-20T22:28:18.106Z,55.96
2018-04-20T22:30:45.679Z,55.99
2018-04-20T22:33:13.134Z,56.12
2018-04-20T22:35:40.594Z,56.31
2018-04-20T22:38:08.126Z,56.39
2018-04-20T22:40:35.652Z,56.59
2018-04-20T22:43:03.129Z,56.79
2018-04-20T22:45:30.585Z,57.20
2018-04-20T22:47:58.039Z,57.59
2018-04-20T22:50:25.512Z,57.46
2018-04-20T22:52:52.980Z,57.79
2018-04-20T22:55:20.450Z,57.89
2018-04-20T22:57:47.947Z,57.99
2018-04-20T23:00:22.286Z,58.13
2018-04-20T23:02:49.800Z,58.13
2018-04-20T23:05:17.265Z,58.34
2018-04-20T23:07:44.743Z,58.33
2018-04-20T23:10:12.366Z,58.28
2018-04-20T23:12:39.796Z,58.35
2018-04-20T23:15:07.274Z,58.53
2018-04-20T23:17:34.739Z,58.76
2018-04-20T23:20:02.236Z,58.78
2018-04-20T23:22:29.723Z,59.05
2018-04-20T23:24:57.173Z,58.96
2018-04-20T23:27:24.662Z,59.10
2018-04-20T23:29:52.132Z,59.20
2018-04-20T23:32:19.599Z,59.15
2018-04-20T23:34:47.073Z,59.33
2018-04-20T23:37:14.527Z,59.54
2018-04-20T23:39:42.032Z,59.49
2018-04-20T23:42:09.516Z,59.63
2018-04-20T23:44:36.987Z,59.48
2018-04-20T23:47:04.665Z,59.94
2018-04-20T23:49:32.118Z,59.78
2018-04-20T23:51:59.588Z,60.14
2018-04-20T23:54:27.055Z,60.27
2018-04-20T23:56:54.517Z,60.59
2018-04-20T23:59:21.974Z,60.70
